createdAt,value
2023-06-16T00:01:33.128Z,3.03
2023-06-16T00:04:06.875Z,2.95
2023-06-16T00:06:33.294Z,3.17
2023-06-16T00:08:59.713Z,2.90
2023-06-16T00:11:26.209Z,2.97
2023-06-16T00:13:52.604Z,2.67
2023-06-16T00:16:19.181Z,2.78
2023-06-16T00:18:45.635Z,2.92
2023-06-16T00:21:12.151Z,3.05
2023-06-16T00:23:38.705Z,3.03
2023-06-16T00:26:05.072Z,2.80
2023-06-16T00:28:31.858Z,2.80
2023-06-16T00:30:58.600Z,2.38
2023-06-16T00:33:25.084Z,2.78
2023-06-16T00:35:51.817Z,2.65
2023-06-16T00:38:18.345Z,2.53
2023-06-16T00:40:45.046Z,2.58
2023-06-16T00:43:11.729Z,2.88
2023-06-16T00:45:38.158Z,2.60
2023-06-16T00:48:04.691Z,2.70
2023-06-16T00:50:31.188Z,2.83
2023-06-16T00:52:59.632Z,2.92
2023-06-16T00:55:26.253Z,2.40
2023-06-16T00:57:55.084Z,2.80
2023-06-16T01:00:21.519Z,2.50
2023-06-16T01:02:48.069Z,2.80
2023-06-16T01:05:15.631Z,2.33
2023-06-16T01:07:44.036Z,2.75
2023-06-16T01:10:12.394Z,2.53
2023-06-16T01:12:38.905Z,2.85
2023-06-16T01:15:07.064Z,2.30
2023-06-16T01:17:33.664Z,2.70
2023-06-16T01:20:00.119Z,2.63
2023-06-16T01:22:26.807Z,2.78
2023-06-16T01:24:53.346Z,2.40
2023-06-16T01:27:19.941Z,2.30
2023-06-16T01:29:46.448Z,2.30
2023-06-16T01:32:13.086Z,2.58
2023-06-16T01:34:39.676Z,2.38
2023-06-16T01:37:06.510Z,2.47
2023-06-16T01:39:32.968Z,2.53
2023-06-16T01:41:59.607Z,2.80
2023-06-16T01:44:26.562Z,2.40
2023-06-16T01:46:53.072Z,2.42
2023-06-16T01:49:19.933Z,2.15
2023-06-16T01:51:46.413Z,2.50
2023-06-16T01:54:12.977Z,2.25
2023-06-16T01:56:39.490Z,2.50
2023-06-16T01:59:05.878Z,2.53
2023-06-16T02:01:32.387Z,2.40
2023-06-16T02:04:01.136Z,2.50
2023-06-16T02:06:27.540Z,2.80
2023-06-16T02:08:54.468Z,2.30
2023-06-16T02:11:20.849Z,2.63
2023-06-16T02:13:47.311Z,2.50
2023-06-16T02:16:14.322Z,2.65
2023-06-16T02:18:43.208Z,2.40
2023-06-16T02:21:09.585Z,2.80
2023-06-16T02:23:36.264Z,2.63
2023-06-16T02:26:03.009Z,2.15
2023-06-16T02:28:29.516Z,2.58
2023-06-16T02:30:56.031Z,2.88
2023-06-16T02:33:22.613Z,2.75
2023-06-16T02:35:49.058Z,3.13
2023-06-16T02:38:15.475Z,2.88
2023-06-16T02:40:42.294Z,2.25
2023-06-16T02:43:09.969Z,2.50
2023-06-16T02:45:36.739Z,2.60
2023-06-16T02:48:03.224Z,2.70
2023-06-16T02:50:29.633Z,2.38
2023-06-16T02:52:56.140Z,2.33
2023-06-16T02:55:22.888Z,2.67
2023-06-16T02:57:49.299Z,2.50
2023-06-16T03:00:16.042Z,2.85
2023-06-16T03:02:44.919Z,2.38
2023-06-16T03:05:11.629Z,3.33
2023-06-16T03:07:38.526Z,2.42
2023-06-16T03:10:04.983Z,2.83
2023-06-16T03:12:33.736Z,3.20
2023-06-16T03:15:00.132Z,2.88
2023-06-16T03:17:26.678Z,2.70
2023-06-16T03:19:54.984Z,2.92
2023-06-16T03:22:21.749Z,2.83
2023-06-16T03:24:49.805Z,2.85
2023-06-16T03:27:16.249Z,2.80
2023-06-16T03:29:42.823Z,3.38
2023-06-16T03:32:09.291Z,2.90
2023-06-16T03:34:35.716Z,3.13
2023-06-16T03:37:02.175Z,3.22
2023-06-16T03:39:28.631Z,3.30
2023-06-16T03:41:55.048Z,3.28
2023-06-16T03:44:21.521Z,2.95
2023-06-16T03:46:48.337Z,3.15
2023-06-16T03:49:15.046Z,3.15
2023-06-16T03:51:41.469Z,2.60
2023-06-16T03:54:07.930Z,3.15
2023-06-16T03:56:34.348Z,3.58
2023-06-16T03:59:00.957Z,3.00
2023-06-16T04:01:28.029Z,3.60
2023-06-16T04:03:54.779Z,3.15
2023-06-16T04:06:21.282Z,3.30
2023-06-16T04:08:50.446Z,3.20
2023-06-16T04:11:20.417Z,3.17
2023-06-16T04:13:49.947Z,3.20
2023-06-16T04:16:16.718Z,3.40
2023-06-16T04:18:43.149Z,3.05
2023-06-16T04:21:09.507Z,3.17
2023-06-16T04:23:35.968Z,3.30
2023-06-16T04:26:02.387Z,3.08
2023-06-16T04:28:30.846Z,2.97
2023-06-16T04:30:58.064Z,3.30
2023-06-16T04:33:24.660Z,3.20
2023-06-16T04:35:51.419Z,3.20
2023-06-16T04:38:18.017Z,3.38
2023-06-16T04:40:44.463Z,3.65
2023-06-16T04:43:10.915Z,3.30
2023-06-16T04:45:37.396Z,3.22
2023-06-16T04:48:03.841Z,3.17
2023-06-16T04:50:30.394Z,3.35
2023-06-16T04:52:56.768Z,3.17
2023-06-16T04:55:23.200Z,3.30
2023-06-16T04:57:49.681Z,3.40
2023-06-16T05:00:16.227Z,3.50
2023-06-16T05:02:42.966Z,3.42
2023-06-16T05:05:09.389Z,3.63
2023-06-16T05:07:35.841Z,3.50
2023-06-16T05:10:02.260Z,3.70
2023-06-16T05:12:28.643Z,3.30
2023-06-16T05:14:55.149Z,3.33
2023-06-16T05:17:21.559Z,3.58
2023-06-16T05:19:48.126Z,3.33
2023-06-16T05:22:14.852Z,3.42
2023-06-16T05:24:41.411Z,4.30
2023-06-16T05:27:08.136Z,3.40
2023-06-16T05:29:34.468Z,3.83
2023-06-16T05:32:00.858Z,3.65
2023-06-16T05:34:27.216Z,3.13
2023-06-16T05:36:53.577Z,3.45
2023-06-16T05:39:20.207Z,3.33
2023-06-16T05:41:46.578Z,3.40
2023-06-16T05:44:13.002Z,2.95
2023-06-16T05:46:39.410Z,3.05
2023-06-16T05:49:05.793Z,3.25
2023-06-16T05:51:32.180Z,3.28
2023-06-16T05:53:58.548Z,2.88
2023-06-16T05:56:25.090Z,3.55
2023-06-16T05:58:52.675Z,3.03
2023-06-16T06:01:19.170Z,3.13
2023-06-16T06:03:45.724Z,2.88
2023-06-16T06:06:12.186Z,3.42
2023-06-16T06:08:38.658Z,3.20
2023-06-16T06:11:05.084Z,3.38
2023-06-16T06:13:31.591Z,3.40
2023-06-16T06:15:58.141Z,2.85
2023-06-16T06:18:24.482Z,3.40
2023-06-16T06:20:50.886Z,3.22
2023-06-16T06:23:17.593Z,3.45
2023-06-16T06:28:35.349Z,3.22
2023-06-16T06:31:01.768Z,3.17
2023-06-16T06:33:28.773Z,3.58
2023-06-16T06:35:55.557Z,3.70
2023-06-16T06:38:24.396Z,3.05
2023-06-16T06:40:50.798Z,3.28
2023-06-16T06:43:17.292Z,3.22
2023-06-16T06:45:44.184Z,3.80
2023-06-16T06:48:10.876Z,3.40
2023-06-16T06:50:37.759Z,3.78
2023-06-16T06:53:04.500Z,3.22
2023-06-16T06:55:30.880Z,3.58
2023-06-16T06:57:57.487Z,3.22
2023-06-16T07:00:25.367Z,3.20
2023-06-16T07:02:52.021Z,3.13
2023-06-16T07:05:18.960Z,3.58
2023-06-16T07:07:45.532Z,3.42
2023-06-16T07:10:15.348Z,2.85
2023-06-16T07:12:42.722Z,3.10
2023-06-16T07:15:16.620Z,3.72
2023-06-16T07:17:43.592Z,3.40
2023-06-16T07:20:11.470Z,3.70
2023-06-16T07:22:38.008Z,3.55
2023-06-16T07:25:07.739Z,3.20
2023-06-16T07:27:35.189Z,3.22
2023-06-16T07:30:01.568Z,3.92
2023-06-16T07:32:28.060Z,3.38
2023-06-16T07:34:54.462Z,3.70
2023-06-16T07:37:21.488Z,3.60
2023-06-16T07:39:49.916Z,3.58
2023-06-16T07:42:16.445Z,3.28
2023-06-16T07:44:43.030Z,3.63
2023-06-16T07:47:11.470Z,3.42
2023-06-16T07:49:38.190Z,3.63
2023-06-16T07:52:05.117Z,3.58
2023-06-16T07:54:31.654Z,3.65
2023-06-16T07:56:58.428Z,3.78
2023-06-16T07:59:25.453Z,3.85
2023-06-16T08:01:52.424Z,3.95
2023-06-16T08:04:20.319Z,3.58
2023-06-16T08:06:46.948Z,3.83
2023-06-16T08:09:13.595Z,3.70
2023-06-16T08:11:42.898Z,3.50
2023-06-16T08:14:09.645Z,4.05
2023-06-16T08:16:36.071Z,4.13
2023-06-16T08:19:02.741Z,3.83
2023-06-16T08:21:29.489Z,3.83
2023-06-16T08:23:56.038Z,3.55
2023-06-16T08:26:22.728Z,3.90
2023-06-16T08:28:49.449Z,4.57
2023-06-16T08:31:18.881Z,3.92
2023-06-16T08:33:45.520Z,3.97
2023-06-16T08:36:14.312Z,3.65
2023-06-16T08:38:41.822Z,3.90
2023-06-16T08:41:08.603Z,3.75
2023-06-16T08:43:41.351Z,3.92
2023-06-16T08:46:13.530Z,4.03
2023-06-16T08:48:40.087Z,4.00
2023-06-16T08:51:06.561Z,4.00
2023-06-16T08:53:33.192Z,4.07
2023-06-16T08:55:59.622Z,4.63
2023-06-16T08:58:27.141Z,4.90
2023-06-16T09:00:53.674Z,4.43
2023-06-16T09:03:20.276Z,4.32
2023-06-16T09:05:47.277Z,4.20
2023-06-16T09:08:13.792Z,4.28
2023-06-16T09:10:40.417Z,4.18
2023-06-16T09:13:06.950Z,3.95
2023-06-16T09:15:33.571Z,3.72
2023-06-16T09:18:00.286Z,4.25
2023-06-16T09:20:26.796Z,4.00
2023-06-16T09:22:54.332Z,3.38
2023-06-16T09:25:20.870Z,3.63
2023-06-16T09:27:47.316Z,3.35
2023-06-16T09:30:14.650Z,3.78
2023-06-16T09:32:41.179Z,4.05
2023-06-16T09:35:07.626Z,4.07
2023-06-16T09:37:34.991Z,3.10
2023-06-16T09:40:01.785Z,3.55
2023-06-16T09:42:28.307Z,3.22
2023-06-16T09:44:54.785Z,3.67
2023-06-16T09:47:21.560Z,3.20
2023-06-16T09:49:47.981Z,3.05
2023-06-16T09:52:17.057Z,3.47
2023-06-16T09:54:46.644Z,3.58
2023-06-16T09:57:14.294Z,3.33
2023-06-16T09:59:42.821Z,3.95
2023-06-16T10:02:11.438Z,3.85
2023-06-16T10:04:38.152Z,3.63
2023-06-16T10:07:04.786Z,3.42
2023-06-16T10:09:31.230Z,3.80
2023-06-16T10:11:57.813Z,3.83
2023-06-16T10:14:24.331Z,4.15
2023-06-16T10:16:50.874Z,3.42
2023-06-16T10:19:18.040Z,3.58
2023-06-16T10:21:44.817Z,4.43
2023-06-16T10:24:13.471Z,3.63
2023-06-16T10:26:43.487Z,3.67
2023-06-16T10:29:11.173Z,3.83
2023-06-16T10:31:37.610Z,3.38
2023-06-16T10:34:04.592Z,3.88
2023-06-16T10:36:31.081Z,4.05
2023-06-16T10:38:59.749Z,3.42
2023-06-16T10:41:27.454Z,3.60
2023-06-16T10:43:54.404Z,3.65
2023-06-16T10:49:08.679Z,3.22
2023-06-16T10:51:35.188Z,3.97
2023-06-16T10:54:01.752Z,3.03
2023-06-16T10:56:28.425Z,3.60
2023-06-16T10:58:54.830Z,3.60
2023-06-16T11:01:21.529Z,3.20
2023-06-16T11:03:48.277Z,3.70
2023-06-16T11:06:15.122Z,3.13
2023-06-16T11:08:41.562Z,3.80
2023-06-16T11:11:08.291Z,3.55
2023-06-16T11:13:35.177Z,3.40
2023-06-16T11:16:01.816Z,3.42
2023-06-16T11:18:28.368Z,4.22
2023-06-16T11:20:54.849Z,9.32
2023-06-16T11:23:21.283Z,4.13
2023-06-16T11:25:50.004Z,4.05
2023-06-16T11:28:16.337Z,3.80
2023-06-16T11:30:42.730Z,4.10
2023-06-16T11:33:09.205Z,3.55
2023-06-16T11:35:35.779Z,4.40
2023-06-16T11:38:02.754Z,5.95
2023-06-16T11:40:29.629Z,6.13
2023-06-16T11:42:56.677Z,4.32
2023-06-16T11:45:25.392Z,4.30
2023-06-16T11:47:52.484Z,3.67
2023-06-16T11:50:20.197Z,4.35
2023-06-16T11:52:49.238Z,4.53
2023-06-16T11:55:16.021Z,4.53
2023-06-16T11:57:42.441Z,4.85
2023-06-16T12:00:08.915Z,5.30
2023-06-16T12:02:36.333Z,5.68
2023-06-16T12:05:03.165Z,4.78
2023-06-16T12:07:29.828Z,4.93
2023-06-16T12:09:56.765Z,5.38
2023-06-16T12:12:23.268Z,6.00
2023-06-16T12:14:49.713Z,5.07
2023-06-16T12:17:16.458Z,4.50
2023-06-16T12:19:43.733Z,4.30
2023-06-16T12:22:10.426Z,4.30
2023-06-16T12:24:37.853Z,4.75
2023-06-16T12:27:04.387Z,4.78
2023-06-16T12:29:30.889Z,4.30
2023-06-16T12:31:57.730Z,4.05
2023-06-16T12:34:24.251Z,4.13
2023-06-16T12:36:50.712Z,3.95
2023-06-16T12:39:17.244Z,4.65
2023-06-16T12:41:43.701Z,4.25
2023-06-16T12:44:10.916Z,3.92
2023-06-16T12:46:37.480Z,4.07
2023-06-16T12:49:03.946Z,4.43
2023-06-16T12:51:30.625Z,4.43
2023-06-16T12:53:57.606Z,3.75
2023-06-16T12:56:24.036Z,4.07
2023-06-16T12:58:50.593Z,4.45
2023-06-16T13:01:18.095Z,3.60
2023-06-16T13:03:44.826Z,4.15
2023-06-16T13:06:12.547Z,4.63
2023-06-16T13:08:39.082Z,4.10
2023-06-16T13:11:05.519Z,4.70
2023-06-16T13:13:32.076Z,4.25
2023-06-16T13:15:58.609Z,4.15
2023-06-16T13:18:27.416Z,3.90
2023-06-16T13:20:57.030Z,3.35
2023-06-16T13:23:23.482Z,4.13
2023-06-16T13:25:49.975Z,4.20
2023-06-16T13:28:17.673Z,3.90
2023-06-16T13:30:44.453Z,3.67
2023-06-16T13:33:10.931Z,3.78
2023-06-16T13:35:37.434Z,3.58
2023-06-16T13:38:04.667Z,3.80
2023-06-16T13:40:31.044Z,3.97
2023-06-16T13:42:57.490Z,3.60
2023-06-16T13:45:24.131Z,4.00
2023-06-16T13:47:50.550Z,3.95
2023-06-16T13:50:17.135Z,3.97
2023-06-16T13:52:43.721Z,4.70
2023-06-16T13:55:10.320Z,4.50
2023-06-16T13:57:36.786Z,4.22
2023-06-16T14:00:03.290Z,3.70
2023-06-16T14:02:29.806Z,4.15
2023-06-16T14:04:57.969Z,4.30
2023-06-16T14:07:26.780Z,4.30
2023-06-16T14:09:53.535Z,4.18
2023-06-16T14:12:20.019Z,4.57
2023-06-16T14:14:49.957Z,3.95
2023-06-16T14:17:19.392Z,3.78
2023-06-16T14:19:45.839Z,4.47
2023-06-16T14:22:12.455Z,4.10
2023-06-16T14:24:39.001Z,4.18
2023-06-16T14:27:05.774Z,4.72
2023-06-16T14:29:33.060Z,4.28
2023-06-16T14:31:59.511Z,4.70
2023-06-16T14:34:25.907Z,4.32
2023-06-16T14:36:52.560Z,4.63
2023-06-16T14:39:19.062Z,4.55
2023-06-16T14:41:45.454Z,3.97
2023-06-16T14:44:11.938Z,4.25
2023-06-16T14:46:38.551Z,4.18
2023-06-16T14:49:05.035Z,4.45
2023-06-16T14:51:31.547Z,4.70
2023-06-16T14:53:58.146Z,4.45
2023-06-16T14:56:25.799Z,4.20
2023-06-16T14:58:52.281Z,4.32
2023-06-16T15:01:18.956Z,4.22
2023-06-16T15:03:45.759Z,4.13
2023-06-16T15:06:15.339Z,4.97
2023-06-16T15:08:43.055Z,5.03
2023-06-16T15:11:10.103Z,4.60
2023-06-16T15:13:36.624Z,4.80
2023-06-16T15:16:03.140Z,4.53
2023-06-16T15:18:30.693Z,4.30
2023-06-16T15:20:57.133Z,4.45
2023-06-16T15:23:23.901Z,4.40
2023-06-16T15:25:50.547Z,4.60
2023-06-16T15:28:17.078Z,4.38
2023-06-16T15:30:43.535Z,5.22
2023-06-16T15:33:10.088Z,5.03
2023-06-16T15:35:37.492Z,5.28
2023-06-16T15:38:04.988Z,4.70
2023-06-16T15:40:31.456Z,5.07
2023-06-16T15:42:59.216Z,6.13
2023-06-16T15:45:25.610Z,4.70
2023-06-16T15:47:52.289Z,5.80
2023-06-16T15:50:19.105Z,4.72
2023-06-16T15:52:45.773Z,4.70
2023-06-16T15:55:12.873Z,4.88
2023-06-16T15:57:39.421Z,4.72
2023-06-16T16:00:05.903Z,5.22
2023-06-16T16:02:36.746Z,4.75
2023-06-16T16:05:03.489Z,4.70
2023-06-16T16:07:31.061Z,4.97
2023-06-16T16:09:57.475Z,4.45
2023-06-16T16:12:30.516Z,4.80
2023-06-16T16:14:57.015Z,5.13
2023-06-16T16:17:23.464Z,5.07
2023-06-16T16:19:49.950Z,5.22
2023-06-16T16:22:16.437Z,4.63
2023-06-16T16:24:42.894Z,5.22
2023-06-16T16:27:09.605Z,4.55
2023-06-16T16:29:36.680Z,4.35
2023-06-16T16:32:03.529Z,4.20
2023-06-16T16:34:30.065Z,4.90
2023-06-16T16:36:56.476Z,3.70
2023-06-16T16:39:23.398Z,4.10
2023-06-16T16:41:49.892Z,3.80
2023-06-16T16:44:16.658Z,4.15
2023-06-16T16:46:43.160Z,3.97
2023-06-16T16:49:10.942Z,4.00
2023-06-16T16:51:37.747Z,4.38
2023-06-16T16:54:04.246Z,3.88
2023-06-16T16:56:31.106Z,4.22
2023-06-16T16:58:57.842Z,4.30
2023-06-16T17:01:24.305Z,3.88
2023-06-16T17:03:50.800Z,3.65
2023-06-16T17:06:18.232Z,3.67
2023-06-16T17:08:45.007Z,3.63
2023-06-16T17:11:14.440Z,3.80
2023-06-16T17:13:40.899Z,4.55
2023-06-16T17:16:07.373Z,4.05
2023-06-16T17:18:34.898Z,3.75
2023-06-16T17:21:03.464Z,3.92
2023-06-16T17:23:30.200Z,3.78
2023-06-16T17:25:57.612Z,3.95
2023-06-16T17:28:24.046Z,4.30
2023-06-16T17:30:50.685Z,4.00
2023-06-16T17:33:17.141Z,4.13
2023-06-16T17:35:44.817Z,4.00
2023-06-16T17:38:12.234Z,3.53
2023-06-16T17:40:38.800Z,4.00
2023-06-16T17:43:05.448Z,4.60
2023-06-16T17:45:32.179Z,4.20
2023-06-16T17:47:58.624Z,4.13
2023-06-16T17:50:28.405Z,3.70
2023-06-16T17:52:55.844Z,4.28
2023-06-16T17:55:22.477Z,4.10
2023-06-16T17:57:49.135Z,3.95
2023-06-16T18:00:17.149Z,4.18
2023-06-16T18:02:44.401Z,4.05
2023-06-16T18:05:11.255Z,4.47
2023-06-16T18:07:38.577Z,4.50
2023-06-16T18:10:05.170Z,3.85
2023-06-16T18:12:32.096Z,4.10
2023-06-16T18:14:58.995Z,3.90
2023-06-16T18:17:25.643Z,4.00
2023-06-16T18:19:54.489Z,3.67
2023-06-16T18:22:21.304Z,3.33
2023-06-16T18:24:48.951Z,3.50
2023-06-16T18:27:15.903Z,3.80
2023-06-16T18:29:42.781Z,4.38
2023-06-16T18:32:09.817Z,4.63
2023-06-16T18:34:36.920Z,4.90
2023-06-16T18:37:06.215Z,4.53
2023-06-16T18:39:33.371Z,4.47
2023-06-16T18:42:00.492Z,4.10
2023-06-16T18:44:27.712Z,3.65
2023-06-16T18:46:55.001Z,4.75
2023-06-16T18:49:22.253Z,4.03
2023-06-16T18:51:49.470Z,3.92
2023-06-16T18:54:16.641Z,4.43
2023-06-16T18:56:43.850Z,4.20
2023-06-16T18:59:11.130Z,4.07
2023-06-16T19:01:38.640Z,4.30
2023-06-16T19:04:06.114Z,4.13
2023-06-16T19:06:33.397Z,3.75
2023-06-16T19:09:00.597Z,4.20
2023-06-16T19:11:28.061Z,4.22
2023-06-16T19:13:55.170Z,4.60
2023-06-16T19:16:21.949Z,4.60
2023-06-16T19:18:48.959Z,4.50
2023-06-16T19:21:15.966Z,4.18
2023-06-16T19:23:42.590Z,4.20
2023-06-16T19:26:09.031Z,4.82
2023-06-16T19:28:36.834Z,3.90
2023-06-16T19:31:03.987Z,3.97
2023-06-16T19:33:31.110Z,3.80
2023-06-16T19:35:57.725Z,3.75
2023-06-16T19:38:24.415Z,4.47
2023-06-16T19:40:51.308Z,4.03
2023-06-16T19:43:17.736Z,3.63
2023-06-16T19:45:44.103Z,3.95
2023-06-16T19:48:10.830Z,3.90
2023-06-16T19:50:37.365Z,3.38
2023-06-16T19:53:03.857Z,3.25
2023-06-16T19:55:40.890Z,3.70
2023-06-16T19:58:12.825Z,3.40
2023-06-16T20:00:39.591Z,3.45
2023-06-16T20:03:08.611Z,3.50
2023-06-16T20:05:35.962Z,3.28
2023-06-16T20:08:03.200Z,3.47
2023-06-16T20:10:30.526Z,3.10
2023-06-16T20:12:57.269Z,3.63
2023-06-16T20:15:24.293Z,2.85
2023-06-16T20:17:53.024Z,3.42
2023-06-16T20:20:19.673Z,3.63
2023-06-16T20:22:46.699Z,3.30
2023-06-16T20:25:13.359Z,2.67
2023-06-16T20:27:42.076Z,3.88
2023-06-16T20:30:08.501Z,2.90
2023-06-16T20:32:35.088Z,3.55
2023-06-16T20:35:01.685Z,3.28
2023-06-16T20:37:29.449Z,3.38
2023-06-16T20:39:55.853Z,3.28
2023-06-16T20:42:22.314Z,3.00
2023-06-16T20:44:50.841Z,2.97
2023-06-16T20:47:17.317Z,2.53
2023-06-16T20:49:43.712Z,2.90
2023-06-16T20:52:10.141Z,3.13
2023-06-16T20:54:36.523Z,3.03
2023-06-16T20:57:03.094Z,2.53
2023-06-16T20:59:29.907Z,2.83
2023-06-16T21:01:58.992Z,2.50
2023-06-16T21:04:25.482Z,2.78
2023-06-16T21:06:51.912Z,2.92
2023-06-16T21:09:18.314Z,2.30
2023-06-16T21:11:44.756Z,2.83
2023-06-16T21:14:11.334Z,2.58
2023-06-16T21:16:37.835Z,2.63
2023-06-16T21:19:05.292Z,2.55
2023-06-16T21:21:31.801Z,2.33
2023-06-16T21:23:58.258Z,2.53
2023-06-16T21:26:26.793Z,2.30
2023-06-16T21:28:53.296Z,1.90
2023-06-16T21:31:19.981Z,2.40
2023-06-16T21:33:46.438Z,2.80
2023-06-16T21:36:12.997Z,2.55
2023-06-16T21:38:39.437Z,2.70
2023-06-16T21:41:06.110Z,2.80
2023-06-16T21:43:32.622Z,3.10
2023-06-16T21:45:59.910Z,2.60
2023-06-16T21:48:26.332Z,2.88
2023-06-16T21:50:52.780Z,2.80
2023-06-16T21:53:19.217Z,3.13
2023-06-16T21:55:45.608Z,3.13
2023-06-16T21:58:12.063Z,3.00
2023-06-16T22:00:38.811Z,3.17
2023-06-16T22:03:08.023Z,3.22
2023-06-16T22:05:34.675Z,3.38
2023-06-16T22:08:01.142Z,3.03
2023-06-16T22:10:29.698Z,3.78
2023-06-16T22:12:56.199Z,3.80
2023-06-16T22:15:22.614Z,3.47
2023-06-16T22:17:49.055Z,3.63
2023-06-16T22:20:16.110Z,3.40
2023-06-16T22:22:42.481Z,2.95
2023-06-16T22:25:09.431Z,3.08
2023-06-16T22:27:36.213Z,3.85
2023-06-16T22:30:02.959Z,3.58
2023-06-16T22:32:29.466Z,3.42
2023-06-16T22:34:55.909Z,3.38
2023-06-16T22:37:22.482Z,3.95
2023-06-16T22:39:49.261Z,3.80
2023-06-16T22:42:15.638Z,3.42
2023-06-16T22:44:42.977Z,3.67
2023-06-16T22:47:09.592Z,3.80
2023-06-16T22:49:36.197Z,3.50
2023-06-16T22:52:02.796Z,3.65
2023-06-16T22:54:29.260Z,3.85
2023-06-16T22:56:55.884Z,3.30
2023-06-16T22:59:22.458Z,3.88
2023-06-16T23:01:49.010Z,3.50
2023-06-16T23:04:16.092Z,3.33
2023-06-16T23:06:42.521Z,3.40
2023-06-16T23:09:09.277Z,3.90
2023-06-16T23:11:36.193Z,3.85
2023-06-16T23:14:02.706Z,3.85
2023-06-16T23:16:31.402Z,3.47
2023-06-16T23:19:00.181Z,3.28
2023-06-16T23:21:26.728Z,4.22
2023-06-16T23:23:53.536Z,3.28
2023-06-16T23:26:20.023Z,4.22
2023-06-16T23:28:46.429Z,3.60
2023-06-16T23:31:12.997Z,3.95
2023-06-16T23:33:39.388Z,3.38
2023-06-16T23:36:05.863Z,3.53
2023-06-16T23:38:32.287Z,4.07
2023-06-16T23:41:00.827Z,3.80
2023-06-16T23:43:27.372Z,3.65
2023-06-16T23:46:00.884Z,3.30
2023-06-16T23:48:27.300Z,3.65
2023-06-16T23:50:53.748Z,3.85
2023-06-16T23:53:25.491Z,3.45
2023-06-16T23:55:51.907Z,3.85
2023-06-16T23:58:18.337Z,3.50
